DW4212 La Cabrera ES current weather conditions

sailwx.info

Wind from 005

Air temperature 17.2° C
Dewpoint 10.1° C

Last reported at 2015-Sep-01 00:49 UTC.
Time now 2015-Sep-01 01:51 UTC

Location: N 40°53' W 003°35'.
View on Google Maps.

See reports from other nearby stations

  
Tides and Currents Weather Stations Pressure Air Temp Water Temp Dewpoint Dewpoint Depression Visibility Wind Speed Wind Dir Waves Ship Positions
date/time (UTC)wind fromknots sea level pressurealtimeterstation pressurevisibilityair tempwater tempwave heightnotes
2015-Sep-01 00:49 005 17.2
2015-Sep-01 00:39 005 17.2
2015-Sep-01 00:29 005 17.2
2015-Sep-01 00:09 005 0 gusting 3 17.2
2015-Aug-31 23:59 005 0 gusting 4 17.2
2015-Aug-31 23:49 009 17.2
2015-Aug-31 23:29 005 1 gusting 6 17.2
2015-Aug-31 23:19 360 0 gusting 5 17.2
2015-Aug-31 23:09 005 0 gusting 4 17.2
2015-Aug-31 22:59 005 2 gusting 6 17.2
2015-Aug-31 22:49 005 1 gusting 6 17.2
2015-Aug-31 22:39 005 2 gusting 5 17.8
2015-Aug-31 22:29 005 1 gusting 5 18.3
2015-Aug-31 22:19 337 1 gusting 5 18.9
2015-Aug-31 22:09 355 2 gusting 8 18.9
2015-Aug-31 21:59 298 3 gusting 9 19.4
2015-Aug-31 21:49 360 2 gusting 8 18.9
2015-Aug-31 21:39 009 1 gusting 4 18.9
2015-Aug-31 21:29 348 0 gusting 3 18.9
2015-Aug-31 21:19 355 0 gusting 5 18.9
2015-Aug-31 21:09 348 1 gusting 6 18.9
2015-Aug-31 20:49 331 2 gusting 5 18.3
2015-Aug-31 20:39 360 0 gusting 5 18.9
2015-Aug-31 20:29 325 1 gusting 6 18.9
2015-Aug-31 20:19 317 0 gusting 5 18.9
2015-Aug-31 20:09 017 0 gusting 5 18.9
2015-Aug-31 19:59 317 18.9
2015-Aug-31 19:49 318 18.9
2015-Aug-31 19:39 340 0 gusting 3 18.9
2015-Aug-31 19:19 355 18.9
2015-Aug-31 19:09 355 19.4
2015-Aug-31 18:59 355 20.0
2015-Aug-31 18:49 355 20.0
2015-Aug-31 18:39 355 20.6
2015-Aug-31 18:29 355 20.6
2015-Aug-31 18:19 355 20.6
2015-Aug-31 18:09 355 20.6
2015-Aug-31 17:59 355 20.6
2015-Aug-31 17:39 355 20.6
2015-Aug-31 17:19 355 20.6
2015-Aug-31 17:09 355 0 gusting 3 20.0
2015-Aug-31 16:59 340 1 gusting 6 20.0
2015-Aug-31 16:49 360 19.4
2015-Aug-31 16:39 360 18.9
2015-Aug-31 16:29 360 18.3
2015-Aug-31 16:19 005 2 gusting 6 18.3
2015-Aug-31 16:09 127 0 gusting 4 18.9
2015-Aug-31 15:59 038 18.3
2015-Aug-31 15:49 005 18.9
2015-Aug-31 15:29 342 18.3
2015-Aug-31 15:19 360 2 gusting 8 17.8
2015-Aug-31 15:09 005 5 gusting 10 18.3
2015-Aug-31 14:59 023 6 gusting 11 18.9
2015-Aug-31 14:49 360 1 gusting 6 20.0
2015-Aug-31 14:39 011 0 gusting 4 21.1
2015-Aug-31 14:29 355 0 gusting 9 22.2
2015-Aug-31 14:19 321 4 gusting 10 23.9
2015-Aug-31 14:09 207 24.4
2015-Aug-31 13:59 200 2 gusting 6 25.0
2015-Aug-31 13:49 209 1 gusting 6 25.6
2015-Aug-31 13:39 219 2 gusting 6 26.1
2015-Aug-31 13:29 212 1 gusting 9 25.6
2015-Aug-31 13:19 182 1 gusting 6 26.1
2015-Aug-31 13:09 199 1 gusting 6 26.1
2015-Aug-31 12:59 262 1 gusting 7 26.1
2015-Aug-31 12:49 209 1 gusting 6 25.6
2015-Aug-31 12:29 199 24.4
2015-Aug-31 12:19 250 23.9
2015-Aug-31 12:09 226 0 gusting 5 23.3
2015-Aug-31 11:59 196 0 gusting 6 23.3
2015-Aug-31 11:49 199 1 gusting 6 23.9
2015-Aug-31 11:39 195 1 gusting 6 23.9
2015-Aug-31 11:29 211 0 gusting 5 23.9
2015-Aug-31 11:19 195 1 gusting 6 23.9
2015-Aug-31 11:09 219 23.9
2015-Aug-31 10:49 192 0 gusting 6 23.3
2015-Aug-31 10:39 205 0 gusting 5 23.3
2015-Aug-31 10:29 250 23.3
2015-Aug-31 10:19 196 1 gusting 5 23.3
2015-Aug-31 10:09 182 22.8
2015-Aug-31 09:59 164 22.8
2015-Aug-31 09:49 184 23.3
2015-Aug-31 09:39 173 23.3
2015-Aug-31 09:29 186 22.2
2015-Aug-31 09:19 184 1 gusting 6 21.7
2015-Aug-31 09:09 198 1 gusting 6 21.1
2015-Aug-31 08:59 184 0 gusting 6 21.1
2015-Aug-31 08:49 188 0 gusting 6 21.1
2015-Aug-31 08:39 184 1 gusting 6 21.1
2015-Aug-31 08:29 175 0 gusting 4 21.1
2015-Aug-31 08:19 190 0 gusting 5 21.7
2015-Aug-31 08:09 360 21.7
2015-Aug-31 07:59 360 21.7
2015-Aug-31 07:49 360 21.7
2015-Aug-31 07:39 005 21.1
2015-Aug-31 07:29 005 20.0
2015-Aug-31 07:19 005 19.4
2015-Aug-31 07:09 005 18.3
2015-Aug-31 06:59 005 17.8
2015-Aug-31 06:49 005 17.2
2015-Aug-31 06:39 005 16.7
2015-Aug-31 06:29 005 16.1
2015-Aug-31 06:19 005 16.1
2015-Aug-31 06:09 005 16.1
2015-Aug-31 06:00 005 16.1
2015-Aug-31 05:49 005 16.1
2015-Aug-31 05:39 005 16.1
2015-Aug-31 05:29 005 16.1
2015-Aug-31 05:19 005 16.1
2015-Aug-31 05:09 005 16.1
2015-Aug-31 04:59 005 16.1
2015-Aug-31 04:49 005 16.1
2015-Aug-31 04:39 005 16.1
2015-Aug-31 04:29 005 16.1
2015-Aug-31 04:19 005 16.1
2015-Aug-31 04:09 005 16.1
2015-Aug-31 03:59 005 16.1
2015-Aug-31 03:49 005 16.1
2015-Aug-31 03:39 005 16.1
2015-Aug-31 03:29 005 16.1
2015-Aug-31 03:19 005 16.1
2015-Aug-31 03:09 005 16.1
2015-Aug-31 02:59 005 16.7
2015-Aug-31 02:49 005 16.7
2015-Aug-31 02:39 005 16.7
2015-Aug-31 02:29 005 17.2
2015-Aug-31 02:19 005 17.2
2015-Aug-31 02:09 005 17.8
2015-Aug-31 01:59 005 17.8
2015-Aug-31 01:49 005 17.2
2015-Aug-31 01:39 005 17.2
2015-Aug-31 01:29 005 17.2
2015-Aug-31 01:19 005 17.2
2015-Aug-31 01:09 005 17.2
2015-Aug-31 00:59 005 17.8
2015-Aug-31 00:39 005 17.2
2015-Aug-31 00:29 005 17.2
2015-Aug-31 00:19 005 17.2
2015-Aug-31 00:09 005 17.2
2015-Aug-30 23:59 005 17.2
2015-Aug-30 23:49 005 17.2
2015-Aug-30 23:39 005 17.2
2015-Aug-30 23:29 005 17.2
2015-Aug-30 23:19 005 17.2
2015-Aug-30 23:09 005 17.2
2015-Aug-30 22:59 005 17.2
2015-Aug-30 22:49 005 17.2
2015-Aug-30 17:59 190 6 gusting 19 21.1
2015-Aug-30 17:39 152 3 gusting 10 28.9
2015-Aug-30 17:29 186 1 gusting 6 29.4
2015-Aug-30 17:19 192 29.4
2015-Aug-30 17:09 188 0 gusting 3 30.0
2015-Aug-30 16:59 187 30.0
2015-Aug-30 16:49 188 30.6
2015-Aug-30 16:39 185 30.6
2015-Aug-30 16:29 184 0 gusting 5 31.1
2015-Aug-30 16:19 173 31.1
2015-Aug-30 16:09 205 0 gusting 5 31.1
2015-Aug-30 15:59 182 1 gusting 6 31.7
2015-Aug-30 15:49 211 1 gusting 6 32.2
2015-Aug-30 15:39 203 0 gusting 6 32.2
2015-Aug-30 15:29 219 31.7
2015-Aug-30 15:19 186 0 gusting 10 31.1
2015-Aug-30 15:09 203 1 gusting 8 31.1
2015-Aug-30 14:49 178 31.1
2015-Aug-30 14:39 180 3 gusting 7 31.7
2015-Aug-30 14:29 195 0 gusting 7 31.7
2015-Aug-30 14:19 145 0 gusting 6 31.1
2015-Aug-30 14:09 191 0 gusting 6 31.1
2015-Aug-30 13:59 138 31.1
2015-Aug-30 13:49 177 0 gusting 4 31.1
2015-Aug-30 13:39 169 0 gusting 4 31.7
2015-Aug-30 13:29 188 0 gusting 3 31.1
2015-Aug-30 13:19 128 0 gusting 6 30.6
2015-Aug-30 13:09 197 1 gusting 8 30.6
2015-Aug-30 12:59 194 0 gusting 4 30.0
2015-Aug-30 12:49 170 30.0
2015-Aug-30 12:39 190 1 gusting 6 30.0
2015-Aug-30 12:29 190 0 gusting 6 29.4
2015-Aug-30 12:19 185 1 gusting 6 29.4
2015-Aug-30 12:09 196 0 gusting 5 29.4
2015-Aug-30 11:59 204 0 gusting 3 29.4
2015-Aug-30 11:49 183 3 gusting 6 29.4
2015-Aug-30 11:39 176 29.4
2015-Aug-30 11:29 179 1 gusting 5 29.4
2015-Aug-30 11:19 184 0 gusting 6 29.4
2015-Aug-30 11:09 173 0 gusting 6 28.9
2015-Aug-30 10:49 203 2 gusting 5 27.8
2015-Aug-30 10:39 182 1 gusting 6 28.3
2015-Aug-30 10:29 194 27.8
2015-Aug-30 10:19 191 0 27.8
2015-Aug-30 10:09 185 0 gusting 5 27.2
2015-Aug-30 09:59 196 0 gusting 5 27.2
2015-Aug-30 09:49 188 1 gusting 4 26.7
2015-Aug-30 09:29 164 26.1
2015-Aug-30 09:19 171 25.6
2015-Aug-30 09:09 178 0 gusting 2 25.6
2015-Aug-30 08:59 176 25.0
2015-Aug-30 08:49 184 25.0
2015-Aug-30 08:39 182 0 gusting 2 24.4
2015-Aug-30 08:29 179 23.9
2015-Aug-30 08:19 178 0 gusting 4 23.9
2015-Aug-30 08:09 119 23.9
2015-Aug-30 07:59 119 23.3
2015-Aug-30 07:49 119 22.8
2015-Aug-30 07:39 111 22.2
2015-Aug-30 07:29 111 21.7
2015-Aug-30 07:19 102 21.7
2015-Aug-30 07:09 255 21.1
2015-Aug-30 06:59 255 21.1
2015-Aug-30 06:49 255 20.0
2015-Aug-30 06:39 255 18.9
2015-Aug-30 06:29 255 18.3
2015-Aug-30 06:19 255 17.8
2015-Aug-30 06:09 255 17.8
2015-Aug-30 05:59 255 17.8
2015-Aug-30 05:49 255 18.3
2015-Aug-30 05:39 255 18.3
2015-Aug-30 05:29 255 18.3
2015-Aug-30 05:19 255 18.9
2015-Aug-30 05:09 255 18.9
2015-Aug-30 04:59 255 18.9
2015-Aug-30 04:49 255 19.4
2015-Aug-30 04:39 255 19.4
2015-Aug-30 04:29 255 19.4
2015-Aug-30 04:19 255 20.0
2015-Aug-30 04:09 255 20.0
2015-Aug-30 03:59 255 20.0
2015-Aug-30 03:49 255 20.6
2015-Aug-30 03:39 255 20.6
2015-Aug-30 03:29 255 21.1
2015-Aug-30 03:19 255 21.1
2015-Aug-30 03:09 255 21.1
2015-Aug-30 02:59 255 21.1
2015-Aug-30 02:49 254 0 gusting 3 21.1
2015-Aug-30 02:39 254 21.1
2015-Aug-30 02:29 254 21.1
2015-Aug-30 02:19 254 0 gusting 3 21.1
2015-Aug-30 02:09 252 0 gusting 2 21.7
2015-Aug-30 01:59 252 21.7
2015-Aug-30 01:49 253 1 gusting 4 21.7
2015-Aug-30 01:39 254 0 gusting 3 21.7
2015-Aug-30 01:29 254 0 gusting 4 21.7
2015-Aug-30 01:09 254 21.7